Time;durP1;ratioP1;P1;durP2;ratioP2;P2;SDS_P1;SDS_P2;PMS_P1;PMS_P2;Temp;Humidity;BMP_temperature;BMP_pressure;BME280_temperature;BME280_humidity;BME280_pressure;Samples;Min_cycle;Max_cycle;Signal;HPM_P1;HPM_P2
2021/10/08 00:00:47;;;;;;;10.20;8.97;;;;;;;12.46;90.16;96560.69;5011253;28;20209;-83
2021/10/08 00:03:14;;;;;;;10.07;9.03;;;;;;;12.55;89.44;96558.88;5010691;28;20203;-83
2021/10/08 00:05:41;;;;;;;11.13;8.90;;;;;;;12.58;88.65;96569.72;5010659;28;20586;-83
2021/10/08 00:08:09;;;;;;;10.70;8.90;;;;;;;12.59;89.79;96570.50;5010415;28;20548;-83
2021/10/08 00:10:36;;;;;;;10.53;9.53;;;;;;;12.64;88.50;96561.31;5010894;28;20719;-83
2021/10/08 00:13:03;;;;;;;10.63;9.63;;;;;;;12.59;89.23;96568.75;5010505;28;20199;-83
2021/10/08 00:15:31;;;;;;;9.80;8.80;;;;;;;12.61;88.39;96561.63;5010345;28;20670;-83
2021/10/08 00:17:57;;;;;;;10.60;9.60;;;;;;;12.66;87.61;96561.13;5011037;28;20229;-83
2021/10/08 00:20:24;;;;;;;11.33;10.10;;;;;;;12.64;88.02;96560.50;5010701;28;20222;-83
2021/10/08 00:22:52;;;;;;;11.17;9.87;;;;;;;12.66;88.00;96568.91;5010814;28;20213;-84
2021/10/08 00:25:20;;;;;;;11.00;9.50;;;;;;;12.73;87.27;96562.88;5010343;28;20205;-83
2021/10/08 00:27:46;;;;;;;11.87;10.67;;;;;;;12.75;87.25;96552.38;5010784;28;20213;-84
2021/10/08 00:30:13;;;;;;;11.43;10.33;;;;;;;12.67;87.55;96558.41;5010283;28;20222;-83
2021/10/08 00:32:39;;;;;;;12.23;10.93;;;;;;;12.73;87.13;96555.13;5010619;28;20229;-83
2021/10/08 00:35:07;;;;;;;15.40;11.67;;;;;;;12.62;88.27;96558.06;5010186;28;20207;-84
2021/10/08 00:37:33;;;;;;;13.43;11.50;;;;;;;12.68;87.80;96556.63;5010441;28;20230;-83
2021/10/08 00:40:00;;;;;;;11.73;10.50;;;;;;;12.69;87.32;96551.28;5009968;28;20578;-83
2021/10/08 00:42:28;;;;;;;12.23;11.03;;;;;;;12.68;88.32;96547.09;4991156;28;20203;-83
2021/10/08 00:44:54;;;;;;;13.53;10.97;;;;;;;12.68;87.72;96546.28;4990347;28;20282;-83
2021/10/08 00:47:21;;;;;;;15.10;11.70;;;;;;;12.68;87.47;96546.28;4990574;28;20667;-84
2021/10/08 00:49:47;;;;;;;13.90;11.20;;;;;;;12.68;87.78;96543.69;4990232;28;20228;-83
2021/10/08 00:52:14;;;;;;;11.60;10.50;;;;;;;12.73;87.09;96536.22;4990862;28;20199;-84
2021/10/08 00:54:40;;;;;;;12.07;10.87;;;;;;;12.75;87.33;96544.63;5001321;28;20257;-83
2021/10/08 00:57:07;;;;;;;13.40;11.00;;;;;;;12.77;87.09;96533.16;5010189;28;20779;-83
2021/10/08 00:59:35;;;;;;;12.63;11.43;;;;;;;12.76;87.33;96530.75;5009292;28;20280;-83
2021/10/08 01:02:05;;;;;;;13.10;11.63;;;;;;;12.80;87.10;96527.66;5009745;28;20191;-83
2021/10/08 01:04:33;;;;;;;12.20;11.00;;;;;;;12.78;87.56;96534.78;5010132;28;20198;-83
2021/10/08 01:06:59;;;;;;;12.63;11.33;;;;;;;12.79;87.66;96533.00;5009049;28;20202;-83
2021/10/08 01:09:26;;;;;;;11.87;10.73;;;;;;;12.75;87.76;96542.03;5009729;28;20218;-83
2021/10/08 01:11:52;;;;;;;13.53;11.03;;;;;;;12.71;88.60;96549.31;5009871;28;20630;-83
2021/10/08 01:14:19;;;;;;;12.13;10.90;;;;;;;12.76;87.79;96546.25;5009798;28;20214;-83
2021/10/08 01:16:47;;;;;;;12.47;11.17;;;;;;;12.74;88.10;96541.25;5009209;28;20261;-83
2021/10/08 01:19:13;;;;;;;12.67;11.10;;;;;;;12.77;87.89;96545.28;5009872;28;20594;-83
2021/10/08 01:21:41;;;;;;;13.33;11.93;;;;;;;12.81;87.42;96538.81;5009814;28;20203;-83
2021/10/08 01:24:07;;;;;;;12.63;11.33;;;;;;;12.84;87.16;96535.09;5009754;28;20206;-84
2021/10/08 01:26:34;;;;;;;13.20;11.90;;;;;;;12.79;87.60;96526.03;5009882;28;20297;-83
2021/10/08 01:29:00;;;;;;;15.37;11.33;;;;;;;12.76;88.25;96525.56;5012859;28;20225;-83
2021/10/08 01:31:28;;;;;;;17.20;12.43;;;;;;;12.73;89.04;96528.47;5013807;28;20200;-83
2021/10/08 01:33:57;;;;;;;13.50;11.60;;;;;;;12.78;87.77;96527.03;5014016;28;20203;-83
2021/10/08 01:36:24;;;;;;;13.27;11.83;;;;;;;12.77;88.55;96524.59;5013363;28;20206;-83
2021/10/08 01:38:51;;;;;;;14.67;12.07;;;;;;;12.73;89.01;96521.53;5013516;28;20905;-83
2021/10/08 01:41:18;;;;;;;14.50;11.80;;;;;;;12.77;88.41;96516.84;5003930;28;20200;-84
2021/10/08 01:43:45;;;;;;;14.90;11.63;;;;;;;12.81;87.81;96520.72;5005050;28;20210;-83
2021/10/08 01:46:11;;;;;;;14.23;11.93;;;;;;;12.78;88.28;96514.09;5013516;28;20233;-83
2021/10/08 01:48:38;;;;;;;13.73;12.27;;;;;;;12.73;89.16;96518.16;5013234;28;20223;-83
2021/10/08 01:51:04;;;;;;;13.20;11.90;;;;;;;12.65;91.04;96525.94;5013291;28;20210;-83
2021/10/08 01:53:30;;;;;;;14.33;12.83;;;;;;;12.65;90.59;96531.09;5012686;28;20205;-83
2021/10/08 01:55:58;;;;;;;16.23;12.63;;;;;;;12.56;91.56;96527.72;5012549;28;20206;-83
2021/10/08 01:58:25;;;;;;;15.63;13.00;;;;;;;12.55;91.85;96527.88;5012261;28;20249;-83
2021/10/08 02:00:51;;;;;;;14.13;12.63;;;;;;;12.50;92.65;96525.81;5013195;28;20213;-83
2021/10/08 02:03:18;;;;;;;14.67;13.07;;;;;;;12.49;92.98;96524.22;5013565;28;20281;-83
2021/10/08 02:05:44;;;;;;;13.47;12.07;;;;;;;12.44;93.02;96529.88;5012978;28;20226;-83
2021/10/08 02:08:11;;;;;;;17.30;12.77;;;;;;;12.50;92.16;96533.56;5013721;28;20821;-83
2021/10/08 02:10:37;;;;;;;14.77;13.27;;;;;;;12.50;93.17;96525.81;5013409;28;20219;-83
2021/10/08 02:13:06;;;;;;;14.23;12.73;;;;;;;12.43;94.01;96519.69;5013334;28;20214;-83
2021/10/08 02:15:33;;;;;;;13.27;11.53;;;;;;;12.48;93.41;96521.78;5013251;28;20278;-83
2021/10/08 02:17:59;;;;;;;14.60;12.17;;;;;;;12.51;92.64;96522.25;5013346;28;20195;-83
2021/10/08 02:20:26;;;;;;;16.83;12.53;;;;;;;12.49;93.07;96526.78;5012830;28;20706;-83
2021/10/08 02:22:52;;;;;;;15.37;12.10;;;;;;;12.47;93.02;96527.91;5012941;28;20670;-83
2021/10/08 02:25:18;;;;;;;13.33;12.03;;;;;;;12.49;92.50;96520.81;5012465;28;20214;-84
2021/10/08 02:27:45;;;;;;;15.63;11.73;;;;;;;12.56;91.43;96525.13;5013050;28;20213;-83
2021/10/08 02:30:13;;;;;;;12.83;10.60;;;;;;;12.63;90.63;96520.94;5012603;28;20225;-83
2021/10/08 02:32:40;;;;;;;12.30;11.10;;;;;;;12.70;89.35;96523.66;5012858;28;20202;-83
2021/10/08 02:35:07;;;;;;;13.83;11.63;;;;;;;12.71;89.44;96526.06;5012301;28;20210;-83
2021/10/08 02:37:34;;;;;;;12.80;11.50;;;;;;;12.74;89.01;96522.34;5012232;28;20210;-82
2021/10/08 02:40:00;;;;;;;13.13;11.10;;;;;;;12.77;89.21;96520.25;5011611;28;20227;-82
2021/10/08 02:42:27;;;;;;;12.57;10.87;;;;;;;12.72;89.75;96521.69;5012113;28;20209;-84
2021/10/08 02:44:53;;;;;;;12.37;11.07;;;;;;;12.75;88.92;96516.19;5012646;28;20207;-83
2021/10/08 02:47:21;;;;;;;13.33;11.93;;;;;;;12.70;90.15;96527.03;5012877;28;20206;-83
2021/10/08 02:49:47;;;;;;;17.10;12.97;;;;;;;12.66;90.02;96523.19;5012854;28;20226;-83
2021/10/08 02:52:16;;;;;;;13.57;11.80;;;;;;;12.64;90.20;96519.16;5012785;28;20210;-82
2021/10/08 02:54:42;;;;;;;14.80;12.60;;;;;;;12.58;91.58;96522.41;5012420;28;20210;-84
2021/10/08 02:57:09;;;;;;;14.83;12.23;;;;;;;12.64;91.03;96521.75;5012717;28;20203;-83
2021/10/08 02:59:35;;;;;;;15.30;13.60;;;;;;;12.53;92.43;96522.88;5011916;28;20226;-83
2021/10/08 03:02:01;;;;;;;15.57;13.10;;;;;;;12.54;92.15;96527.06;5011188;28;20202;-84
2021/10/08 03:04:29;;;;;;;14.33;12.67;;;;;;;12.48;93.00;96521.78;5011884;28;20202;-83
2021/10/08 03:06:56;;;;;;;16.50;13.00;;;;;;;12.42;93.56;96518.06;5011496;28;20577;-83
2021/10/08 03:09:23;;;;;;;16.33;14.07;;;;;;;12.37;94.21;96525.50;5012025;28;20258;-83
2021/10/08 03:11:49;;;;;;;15.60;13.87;;;;;;;12.38;93.28;96522.75;5012159;28;20582;-83
2021/10/08 03:14:16;;;;;;;16.43;12.53;;;;;;;12.47;93.28;96520.16;5011175;28;20203;-83
2021/10/08 03:16:42;;;;;;;16.03;13.97;;;;;;;12.43;93.67;96523.09;5011377;28;20207;-84
2021/10/08 03:19:09;;;;;;;16.03;13.23;;;;;;;12.47;92.79;96520.16;5011721;28;20226;-83
2021/10/08 03:21:37;;;;;;;14.50;12.90;;;;;;;12.39;94.68;96519.22;5011956;28;20210;-83
2021/10/08 03:24:03;;;;;;;15.10;12.47;;;;;;;12.50;93.47;96517.25;5011979;28;20253;-83
2021/10/08 03:26:30;;;;;;;13.80;12.40;;;;;;;12.53;93.42;96516.91;5011848;28;20234;-83
2021/10/08 03:28:56;;;;;;;15.57;13.10;;;;;;;12.54;93.25;96509.00;5011717;28;20601;-82
2021/10/08 03:31:23;;;;;;;14.37;12.87;;;;;;;12.58;92.54;96512.06;5012273;28;20825;-83
2021/10/08 03:33:49;;;;;;;15.07;13.53;;;;;;;12.53;92.21;96519.50;5012209;28;20593;-83
2021/10/08 03:36:21;;;;;;;16.77;14.47;;;;;;;12.51;92.59;96514.50;5011458;28;20214;-83
2021/10/08 03:38:49;;;;;;;14.87;13.37;;;;;;;12.54;92.59;96514.16;5011871;28;20231;-83
2021/10/08 03:41:17;;;;;;;17.00;13.60;;;;;;;12.49;93.14;96508.72;5002323;28;20602;-83
2021/10/08 03:43:44;;;;;;;15.23;13.63;;;;;;;12.50;93.39;96507.75;4992176;28;20631;-83
2021/10/08 03:46:11;;;;;;;17.20;14.07;;;;;;;12.49;93.40;96507.91;4992221;28;20290;-83
2021/10/08 03:49:01;;;;;;;17.00;14.23;;;;;;;12.49;94.62;96515.66;4991961;28;20228;-84
2021/10/08 03:51:28;;;;;;;17.90;13.63;;;;;;;12.46;94.47;96509.03;4991220;28;20211;-83
2021/10/08 03:53:57;;;;;;;15.70;13.40;;;;;;;12.42;94.40;96515.50;4994190;28;20207;-83
2021/10/08 03:56:23;;;;;;;18.67;15.00;;;;;;;12.43;94.35;96517.09;5011094;28;20679;-83
2021/10/08 03:58:50;;;;;;;18.57;14.00;;;;;;;12.41;95.25;96517.28;5010573;28;20637;-83
2021/10/08 04:01:16;;;;;;;17.00;14.60;;;;;;;12.35;95.66;96517.91;5010765;28;20672;-83
2021/10/08 04:03:43;;;;;;;16.17;14.47;;;;;;;12.39;94.43;96516.63;5010902;28;20199;-83
2021/10/08 04:06:09;;;;;;;18.50;15.20;;;;;;;12.38;95.52;96524.53;5002545;28;20195;-84
2021/10/08 04:08:37;;;;;;;15.87;13.63;;;;;;;12.40;94.99;96528.56;4991943;28;20250;-83
2021/10/08 04:11:05;;;;;;;14.97;13.43;;;;;;;12.49;94.90;96531.97;4991876;28;20244;-83
2021/10/08 04:13:32;;;;;;;15.60;13.03;;;;;;;12.49;93.29;96523.41;4991815;28;20207;-83
2021/10/08 04:15:59;;;;;;;15.20;13.60;;;;;;;12.53;92.91;96522.88;4991202;28;20682;-83
2021/10/08 04:18:25;;;;;;;17.27;13.80;;;;;;;12.52;92.68;96523.03;4991494;28;20199;-84
2021/10/08 04:20:52;;;;;;;14.50;13.13;;;;;;;12.51;92.49;96522.25;4991337;28;20221;-84
2021/10/08 04:23:18;;;;;;;13.30;11.90;;;;;;;12.56;92.56;96517.38;4991332;28;20203;-83
2021/10/08 04:25:45;;;;;;;14.23;12.53;;;;;;;12.42;93.96;96520.66;4991360;28;20705;-83
2021/10/08 04:28:13;;;;;;;15.60;12.67;;;;;;;12.35;93.85;96520.50;4998175;28;20202;-83
2021/10/08 04:30:40;;;;;;;14.57;13.03;;;;;;;12.39;93.61;96526.16;5010394;28;20642;-82
2021/10/08 04:33:14;;;;;;;13.87;12.57;;;;;;;12.53;92.88;96524.66;5010627;28;20210;-83
2021/10/08 04:35:40;;;;;;;13.93;12.23;;;;;;;12.56;92.71;96525.13;5010723;28;20270;-83
2021/10/08 04:38:06;;;;;;;14.70;12.47;;;;;;;12.58;92.27;96520.63;5010319;28;20207;-83
2021/10/08 04:40:33;;;;;;;14.73;13.20;;;;;;;12.49;93.28;96516.47;5010140;28;20214;-83
2021/10/08 04:42:59;;;;;;;14.03;12.47;;;;;;;12.55;93.14;96510.59;5010222;28;20206;-84
2021/10/08 04:45:27;;;;;;;17.43;13.53;;;;;;;12.47;94.65;96512.44;5005785;28;20207;-83
2021/10/08 04:47:54;;;;;;;14.97;13.27;;;;;;;12.43;95.82;96512.75;5003469;28;20571;-83
2021/10/08 04:50:20;;;;;;;14.73;12.67;;;;;;;12.44;94.85;96510.97;4995051;28;21393;-82
2021/10/08 04:52:47;;;;;;;14.53;12.23;;;;;;;12.52;93.73;96510.94;5004577;28;20206;-83
2021/10/08 04:55:16;;;;;;;15.37;12.73;;;;;;;12.41;94.09;96509.53;5001790;28;20207;-83
2021/10/08 04:57:43;;;;;;;15.53;12.70;;;;;;;12.44;93.73;96511.78;5004758;28;20246;-83
2021/10/08 05:00:11;;;;;;;13.73;12.37;;;;;;;12.45;94.06;96517.75;5010360;28;20222;-83
2021/10/08 05:02:39;;;;;;;12.73;11.53;;;;;;;12.54;93.22;96514.16;5009316;28;20234;-85
2021/10/08 05:05:06;;;;;;;13.60;12.13;;;;;;;12.53;92.32;96515.13;5014143;28;20240;-85
2021/10/08 05:07:33;;;;;;;12.53;11.20;;;;;;;12.47;97.79;96513.22;5019135;28;20206;-84
2021/10/08 05:10:00;;;;;;;14.77;11.70;;;;;;;12.46;96.62;96516.78;5017981;28;20245;-84
2021/10/08 05:12:27;;;;;;;13.43;12.00;;;;;;;12.40;95.94;96517.44;5018771;28;20224;-84
2021/10/08 05:14:53;;;;;;;14.53;11.93;;;;;;;12.43;94.77;96517.91;5018345;28;20198;-84
2021/10/08 05:17:20;;;;;;;72.57;61.77;;;;;;;12.41;93.88;96514.69;5017915;28;20209;-85
2021/10/08 05:19:48;;;;;;;36.00;30.87;;;;;;;12.49;92.99;96507.91;5019850;28;20237;-84
2021/10/08 05:22:14;;;;;;;16.80;14.70;;;;;;;12.52;92.67;96510.94;5019460;28;20207;-83
2021/10/08 05:24:41;;;;;;;15.20;12.77;;;;;;;12.53;92.71;96504.81;5016650;28;20213;-85
2021/10/08 05:27:07;;;;;;;14.83;13.30;;;;;;;12.56;91.96;96512.22;5017692;28;20281;-83
2021/10/08 05:29:34;;;;;;;15.83;13.57;;;;;;;12.49;92.45;96508.72;5018903;28;20215;-84
2021/10/08 05:32:00;;;;;;;16.93;13.20;;;;;;;12.39;93.92;96506.28;5018827;28;20211;-84
2021/10/08 05:34:27;;;;;;;15.93;13.77;;;;;;;12.41;93.85;96508.72;5017020;28;20198;-83
2021/10/08 05:36:54;;;;;;;20.40;14.47;;;;;;;12.39;93.67;96508.88;5015943;28;20207;-83
2021/10/08 05:39:21;;;;;;;18.13;14.67;;;;;;;12.39;93.80;96514.03;5016480;28;20234;-84
2021/10/08 05:41:47;;;;;;;17.67;14.47;;;;;;;12.39;94.86;96516.63;5004765;28;20812;-84
2021/10/08 05:44:16;;;;;;;17.87;15.60;;;;;;;12.42;93.67;96515.50;4996834;28;20610;-84
2021/10/08 05:46:43;;;;;;;19.30;16.10;;;;;;;12.33;93.59;96519.06;4997659;28;20402;-83
2021/10/08 05:49:09;;;;;;;21.03;16.27;;;;;;;12.25;95.12;96519.88;4997468;28;20227;-82
2021/10/08 05:51:39;;;;;;;24.80;16.23;;;;;;;12.20;95.34;96516.97;4996926;28;20551;-83
2021/10/08 05:54:06;;;;;;;35.63;28.50;;;;;;;12.24;95.87;96520.03;5000549;28;20894;-83
2021/10/08 05:56:33;;;;;;;31.73;26.80;;;;;;;12.30;95.61;96529.72;4998785;28;20678;-82
2021/10/08 05:59:02;;;;;;;25.70;20.63;;;;;;;12.38;95.04;96534.88;4995959;28;20224;-82
2021/10/08 06:01:29;;;;;;;21.57;17.87;;;;;;;12.29;94.62;96528.94;4996742;28;20243;-84
2021/10/08 06:03:55;;;;;;;20.67;15.87;;;;;;;12.26;95.90;96529.25;5001967;28;20207;-83
2021/10/08 06:06:22;;;;;;;21.13;18.10;;;;;;;12.30;95.32;96535.69;4997372;28;20702;-85
2021/10/08 06:08:48;;;;;;;21.33;18.10;;;;;;;12.28;95.85;96535.06;4998529;28;20230;-84
2021/10/08 06:11:18;;;;;;;20.87;17.63;;;;;;;12.30;95.82;96532.31;4997661;28;20203;-84
2021/10/08 06:14:05;;;;;;;21.00;18.17;;;;;;;12.32;96.52;96536.31;4994219;28;20211;-83
2021/10/08 06:16:31;;;;;;;21.63;17.70;;;;;;;12.31;97.61;96532.16;4981467;28;20207;-82
2021/10/08 06:18:58;;;;;;;29.97;21.93;;;;;;;12.36;96.45;96536.81;4993494;28;20223;-83
2021/10/08 06:21:26;;;;;;;39.73;32.33;;;;;;;12.37;96.17;96538.41;4992793;28;20228;-83
2021/10/08 06:23:53;;;;;;;28.60;23.03;;;;;;;12.35;96.84;96536.00;4993737;28;20199;-85
2021/10/08 06:26:21;;;;;;;25.30;19.63;;;;;;;12.40;96.63;96536.31;4995926;28;20199;-83
2021/10/08 06:28:47;;;;;;;23.43;18.87;;;;;;;12.38;96.66;96535.69;5006252;28;20247;-83
2021/10/08 06:31:14;;;;;;;23.03;19.10;;;;;;;12.47;96.00;96530.50;5010668;28;21761;-83
2021/10/08 06:33:42;;;;;;;21.43;17.77;;;;;;;12.56;94.55;96538.06;5007936;28;20237;-85
2021/10/08 06:36:10;;;;;;;23.87;18.23;;;;;;;12.45;95.66;96538.41;5023118;28;20206;-84
2021/10/08 06:38:37;;;;;;;26.27;19.97;;;;;;;12.36;95.93;96542.78;5015084;28;20206;-85
2021/10/08 06:41:04;;;;;;;24.57;19.17;;;;;;;12.31;95.95;96542.47;5009519;28;20215;-85
2021/10/08 06:43:32;;;;;;;25.60;18.77;;;;;;;12.30;97.22;96552.97;4995013;28;20218;-84
2021/10/08 06:46:04;;;;;;;25.63;19.87;;;;;;;12.33;97.52;96550.03;4993916;28;20203;-84
2021/10/08 06:48:30;;;;;;;22.10;17.27;;;;;;;12.31;97.52;96550.22;4995681;28;20690;-83
2021/10/08 06:50:57;;;;;;;22.97;17.93;;;;;;;12.42;97.15;96555.03;4999257;28;20597;-83
2021/10/08 06:53:24;;;;;;;24.13;17.93;;;;;;;12.46;96.28;96552.94;5012637;28;20261;-82
2021/10/08 06:55:51;;;;;;;21.13;18.27;;;;;;;12.47;95.63;96551.16;5012492;28;20210;-83
2021/10/08 06:58:17;;;;;;;24.37;17.53;;;;;;;12.43;97.03;96561.81;5011772;28;20210;-84
2021/10/08 07:00:45;;;;;;;26.70;21.00;;;;;;;12.41;96.05;96563.75;5012948;28;20234;-84
2021/10/08 07:03:16;;;;;;;28.17;21.90;;;;;;;12.48;96.44;96558.75;5010465;28;20261;-83
2021/10/08 07:05:43;;;;;;;21.60;17.97;;;;;;;12.47;97.24;96558.91;5012296;28;20206;-84
2021/10/08 07:08:12;;;;;;;23.80;17.50;;;;;;;12.48;97.34;96552.78;5012406;28;20214;-83
2021/10/08 07:10:42;;;;;;;24.07;17.57;;;;;;;12.45;96.74;96561.66;5003311;28;20576;-83
2021/10/08 07:13:09;;;;;;;21.40;16.80;;;;;;;12.48;97.75;96565.69;5000162;28;20203;-83
2021/10/08 07:15:36;;;;;;;24.40;18.07;;;;;;;12.46;97.58;96560.69;5010111;28;20592;-82
2021/10/08 07:18:04;;;;;;;21.93;17.73;;;;;;;12.50;96.97;96558.59;5022755;28;20203;-83
2021/10/08 07:20:32;;;;;;;21.60;17.67;;;;;;;12.49;96.21;96556.97;5011897;28;20637;-83
2021/10/08 07:23:02;;;;;;;26.17;18.10;;;;;;;12.39;96.54;96562.31;5011762;28;20191;-84
2021/10/08 07:25:30;;;;;;;22.83;17.73;;;;;;;12.43;97.00;96555.84;5009021;28;20215;-83
2021/10/08 07:27:57;;;;;;;24.73;20.67;;;;;;;12.40;97.83;96556.19;5010283;28;20203;-84
2021/10/08 07:30:24;;;;;;;21.47;18.57;;;;;;;12.48;98.05;96565.69;5012181;28;20218;-85
2021/10/08 07:32:51;;;;;;;23.17;17.87;;;;;;;12.48;97.51;96558.75;5014018;28;20199;-85
2021/10/08 07:35:19;;;;;;;22.97;18.70;;;;;;;12.48;97.79;96561.34;5004211;28;20218;-85
2021/10/08 07:37:46;;;;;;;26.30;18.13;;;;;;;12.56;97.75;96563.09;4993837;28;20219;-85
2021/10/08 07:40:13;;;;;;;24.00;17.67;;;;;;;12.65;95.98;96562.91;4997689;28;20250;-85
2021/10/08 07:42:40;;;;;;;23.27;18.03;;;;;;;12.63;97.41;96569.22;5014559;28;20203;-85
2021/10/08 07:45:13;;;;;;;19.57;17.07;;;;;;;12.69;96.46;96571.16;4997116;28;20207;-85
2021/10/08 07:47:40;;;;;;;22.97;17.93;;;;;;;12.60;96.73;96569.53;4995202;28;20203;-84
2021/10/08 07:50:11;;;;;;;22.10;17.83;;;;;;;12.60;97.26;96569.53;5012287;28;20219;-85
2021/10/08 07:52:48;;;;;;;23.97;17.87;;;;;;;12.60;97.68;96572.13;5014595;28;20215;-86
2021/10/08 07:55:14;;;;;;;26.07;19.07;;;;;;;12.54;98.09;96565.03;5000287;28;20207;-85
2021/10/08 07:57:41;;;;;;;25.93;18.37;;;;;;;12.49;98.72;96575.06;4994986;28;20929;-85
2021/10/08 08:00:11;;;;;;;24.87;17.67;;;;;;;12.51;98.94;96575.72;4994329;28;20273;-85
2021/10/08 08:02:37;;;;;;;24.87;18.33;;;;;;;12.57;98.46;96580.19;4993128;28;20235;-84
2021/10/08 08:05:04;;;;;;;25.67;19.10;;;;;;;12.56;98.65;96578.59;4991403;28;20578;-83
2021/10/08 08:07:31;;;;;;;27.20;19.70;;;;;;;12.52;99.35;96577.28;4990804;28;20206;-83
2021/10/08 08:09:59;;;;;;;28.37;19.80;;;;;;;12.59;98.81;96583.44;4990958;28;20310;-83
2021/10/08 08:12:26;;;;;;;27.50;19.37;;;;;;;12.66;99.26;96582.63;5006138;28;20724;-83
2021/10/08 08:14:52;;;;;;;25.47;18.93;;;;;;;12.72;98.01;96581.94;5011114;28;20207;-84
2021/10/08 08:17:19;;;;;;;25.73;17.87;;;;;;;12.77;98.44;96581.44;5010635;28;20203;-83
2021/10/08 08:19:45;;;;;;;26.33;17.77;;;;;;;12.78;98.05;96586.47;5010715;28;20668;-83
2021/10/08 08:22:12;;;;;;;26.20;17.77;;;;;;;12.73;98.61;96578.38;5011178;28;20225;-83
2021/10/08 08:24:38;;;;;;;25.13;18.40;;;;;;;12.80;98.26;96579.34;5009535;28;20708;-82
2021/10/08 08:27:06;;;;;;;23.13;18.27;;;;;;;12.76;98.99;96583.22;5010552;28;20577;-83
2021/10/08 08:29:32;;;;;;;26.77;18.63;;;;;;;12.74;98.33;96577.41;5010112;28;20642;-85
2021/10/08 08:31:59;;;;;;;26.37;17.80;;;;;;;12.70;100.00;96575.34;5010783;28;20214;-83
2021/10/08 08:34:27;;;;;;;27.00;17.93;;;;;;;12.83;98.80;96573.03;5010380;28;20237;-84
2021/10/08 08:36:57;;;;;;;24.40;17.63;;;;;;;12.90;98.20;96575.75;5009249;28;20187;-84
2021/10/08 08:39:23;;;;;;;23.33;17.23;;;;;;;12.91;97.97;96577.38;5009947;28;20238;-82
2021/10/08 08:41:51;;;;;;;24.97;17.33;;;;;;;12.93;98.03;96576.22;4997770;28;20227;-84
2021/10/08 08:44:19;;;;;;;28.03;17.43;;;;;;;12.94;98.43;96580.44;4991550;28;20215;-83
2021/10/08 08:46:46;;;;;;;26.27;17.37;;;;;;;13.01;98.84;96576.22;4990283;28;20195;-84
2021/10/08 08:49:13;;;;;;;22.30;16.63;;;;;;;13.11;97.75;96573.41;5007981;28;20219;-85
2021/10/08 08:51:39;;;;;;;22.27;16.17;;;;;;;13.12;97.23;96570.66;5010645;28;20824;-83
2021/10/08 08:54:07;;;;;;;40.70;30.93;;;;;;;13.14;97.51;96570.50;5006318;28;20203;-83
2021/10/08 08:56:35;;;;;;;41.77;33.33;;;;;;;13.08;97.42;96563.44;5009760;28;20213;-84
2021/10/08 08:59:03;;;;;;;28.73;23.30;;;;;;;13.14;97.27;96571.31;5010444;28;20223;-83
2021/10/08 09:01:32;;;;;;;21.83;15.77;;;;;;;13.10;97.39;96569.22;5008380;28;20241;-83
2021/10/08 09:04:03;;;;;;;22.37;15.40;;;;;;;13.06;98.00;96570.56;4991832;28;20208;-85
2021/10/08 09:06:31;;;;;;;20.20;14.10;;;;;;;13.11;97.28;96565.66;5001786;28;20213;-84
2021/10/08 09:08:58;;;;;;;18.97;14.47;;;;;;;13.10;97.02;96566.63;5009878;28;20219;-83
2021/10/08 09:11:36;;;;;;;19.93;14.63;;;;;;;13.13;97.30;96561.94;5009368;28;20207;-82
2021/10/08 09:14:14;;;;;;;19.93;14.70;;;;;;;13.20;97.07;96562.13;5010459;28;20213;-83
2021/10/08 09:17:05;;;;;;;18.83;13.83;;;;;;;13.14;97.66;96565.34;5011161;28;20232;-84
2021/10/08 09:19:46;;;;;;;18.73;14.60;;;;;;;13.05;98.13;96562.00;5009725;28;20226;-84
2021/10/08 09:22:13;;;;;;;16.93;12.80;;;;;;;13.00;98.89;96563.47;5010164;28;20233;-84
2021/10/08 09:24:39;;;;;;;16.47;12.07;;;;;;;12.95;98.88;96560.56;4989657;28;20689;-83
2021/10/08 09:27:09;;;;;;;14.37;11.83;;;;;;;12.95;99.57;96557.97;4990119;28;20211;-83
2021/10/08 09:29:36;;;;;;;16.07;12.70;;;;;;;12.93;100.00;96558.13;4990455;28;20230;-85
2021/10/08 09:32:04;;;;;;;14.73;12.13;;;;;;;13.00;99.87;96553.91;4993157;28;20694;-85
2021/10/08 09:34:31;;;;;;;14.70;12.47;;;;;;;13.06;99.75;96561.03;4992469;28;20203;-85
2021/10/08 09:37:00;;;;;;;16.23;13.27;;;;;;;13.09;100.00;96559.84;4999758;28;20581;-83
2021/10/08 09:39:29;;;;;;;14.97;12.00;;;;;;;13.04;99.78;96555.22;5010101;28;20269;-82
2021/10/08 09:41:59;;;;;;;14.87;11.97;;;;;;;13.12;100.00;96538.84;5008927;28;20290;-85
2021/10/08 09:44:27;;;;;;;55.10;49.07;;;;;;;13.27;99.75;96546.75;4991360;28;20667;-82
2021/10/08 09:47:09;;;;;;;32.80;25.67;;;;;;;13.26;100.00;96543.34;4999300;28;20198;-83
2021/10/08 09:49:36;;;;;;;16.57;12.90;;;;;;;13.28;100.00;96543.16;4997057;28;20223;-85
2021/10/08 09:52:27;;;;;;;11.97;10.47;;;;;;;13.30;100.00;96544.59;4996887;28;20574;-84
2021/10/08 09:54:55;;;;;;;12.80;10.63;;;;;;;13.25;100.00;96540.94;5014495;28;20207;-84
2021/10/08 09:57:22;;;;;;;15.63;10.47;;;;;;;13.24;100.00;96542.72;5016648;28;20203;-85
2021/10/08 09:59:49;;;;;;;12.57;10.67;;;;;;;13.33;100.00;96543.47;5002318;28;20227;-85
2021/10/08 10:02:18;;;;;;;10.87;9.70;;;;;;;13.37;100.00;96539.56;5013968;28;20215;-85
2021/10/08 10:04:49;;;;;;;10.73;9.40;;;;;;;13.43;99.91;96531.94;5009841;28;20302;-84
2021/10/08 10:07:18;;;;;;;9.73;8.67;;;;;;;13.39;98.65;96527.25;4994636;28;20215;-83
2021/10/08 10:09:45;;;;;;;10.70;9.60;;;;;;;13.41;99.45;96528.72;4996632;28;20221;-85
2021/10/08 10:12:14;;;;;;;10.30;9.13;;;;;;;13.42;99.13;96545.03;5007761;28;20562;-82
2021/10/08 10:14:44;;;;;;;10.20;9.23;;;;;;;13.45;97.82;96532.56;5007388;28;20254;-84
2021/10/08 10:17:10;;;;;;;10.73;9.73;;;;;;;13.47;98.67;96535.75;5009270;28;20219;-83
2021/10/08 10:19:43;;;;;;;10.73;9.60;;;;;;;13.39;99.31;96538.41;4993474;28;20227;-82
2021/10/08 10:22:14;;;;;;;9.67;8.77;;;;;;;13.41;99.49;96536.47;4993709;28;20277;-83
2021/10/08 10:24:42;;;;;;;9.63;8.73;;;;;;;13.46;98.81;96533.38;5012332;28;20221;-84
2021/10/08 10:27:09;;;;;;;9.57;8.60;;;;;;;13.62;97.71;96535.06;5012433;28;20253;-83
2021/10/08 10:29:37;;;;;;;9.17;8.30;;;;;;;13.64;97.84;96531.31;5012095;28;20231;-83
2021/10/08 10:32:05;;;;;;;7.93;7.23;;;;;;;13.76;96.36;96534.31;5013127;28;20198;-83
2021/10/08 10:34:34;;;;;;;8.43;7.70;;;;;;;13.65;94.97;96525.16;5012658;28;20220;-83
2021/10/08 10:37:02;;;;;;;8.50;7.70;;;;;;;13.67;94.43;96530.94;5011639;28;20199;-83
2021/10/08 10:39:29;;;;;;;31.43;28.13;;;;;;;13.59;95.43;96527.63;5012394;28;20296;-82
2021/10/08 10:42:15;;;;;;;8.23;7.43;;;;;;;13.48;95.39;96521.03;5003398;28;20227;-84
2021/10/08 10:45:09;;;;;;;8.17;7.47;;;;;;;13.49;97.23;96531.22;5011061;28;20199;-83
2021/10/08 10:47:37;;;;;;;8.53;7.73;;;;;;;13.58;96.42;96526.81;5011721;28;20277;-83
2021/10/08 10:50:14;;;;;;;8.27;7.17;;;;;;;13.55;95.53;96532.34;5013234;28;20232;-83
2021/10/08 10:52:50;;;;;;;8.30;7.50;;;;;;;13.59;94.82;96532.81;5013464;28;20194;-82
2021/10/08 10:55:18;;;;;;;8.37;7.63;;;;;;;13.67;93.89;96524.97;5011003;28;20226;-83
2021/10/08 10:58:03;;;;;;;7.70;7.00;;;;;;;13.94;91.96;96537.41;5014212;28;20203;-84
2021/10/08 11:00:41;;;;;;;8.00;7.30;;;;;;;14.04;90.82;96535.41;5013696;28;20228;-85
2021/10/08 11:03:13;;;;;;;8.50;7.67;;;;;;;14.07;90.70;96529.84;5013858;28;20302;-85
2021/10/08 11:06:02;;;;;;;9.23;8.33;;;;;;;14.04;88.13;96532.00;5013750;28;20205;-85
2021/10/08 11:08:30;;;;;;;8.73;7.93;;;;;;;13.99;87.84;96540.28;5014622;28;20203;-85
2021/10/08 11:11:17;;;;;;;9.07;8.27;;;;;;;13.82;87.86;96531.03;4999603;28;20411;-85
2021/10/08 11:13:43;;;;;;;10.87;8.83;;;;;;;13.83;87.88;96532.66;4995292;28;20207;-85
2021/10/08 11:16:11;;;;;;;8.87;7.90;;;;;;;13.91;88.48;96536.94;4999809;28;20203;-84
2021/10/08 11:18:43;;;;;;;9.27;8.37;;;;;;;14.02;88.76;96527.00;5013904;28;20199;-83
2021/10/08 11:21:12;;;;;;;7.73;6.93;;;;;;;14.09;89.29;96530.47;4994916;28;20737;-84
2021/10/08 11:23:41;;;;;;;7.93;7.23;;;;;;;14.20;87.68;96534.44;4995389;28;20203;-85